Time;durP1;ratioP1;P1;durP2;ratioP2;P2;SDS_P1;SDS_P2;PMS_P1;PMS_P2;Temp;Humidity;BMP_temperature;BMP_pressure;BME280_temperature;BME280_humidity;BME280_pressure;Samples;Min_cycle;Max_cycle;Signal;HPM_P1;HPM_P2
2021/12/31 00:00:26;;;;;;;53.00;24.40;;;;;;;9.65;100.00;99269.68;103597;1302;24246;-25
2021/12/31 00:02:51;;;;;;;33.50;14.90;;;;;;;9.81;100.00;99270.49;103643;1302;24282;-27
2021/12/31 00:05:17;;;;;;;38.30;9.50;;;;;;;9.61;100.00;99276.23;103650;1302;24375;-25
2021/12/31 00:07:45;;;;;;;12.40;6.50;;;;;;;9.82;100.00;99278.80;103679;1302;24368;-25
2021/12/31 00:10:11;;;;;;;10.50;3.30;;;;;;;9.70;100.00;99283.73;103688;1302;22768;-25
2021/12/31 00:12:40;;;;;;;11.00;6.20;;;;;;;9.79;100.00;99287.38;103489;1302;24310;-25
2021/12/31 00:15:05;;;;;;;12.40;5.00;;;;;;;9.60;100.00;99285.84;103597;1302;22964;-30
2021/12/31 00:17:31;;;;;;;12.40;4.40;;;;;;;9.46;100.00;99281.52;103628;1302;23059;-33
2021/12/31 00:24:53;;;;;;;31.60;7.60;;;;;;;9.65;100.00;99286.67;103506;1302;24439;-24
2021/12/31 00:27:19;;;;;;;7.20;3.00;;;;;;;9.64;100.00;99287.13;103492;1302;24228;-24
2021/12/31 00:29:45;;;;;;;29.70;10.30;;;;;;;9.58;100.00;99284.84;103545;1302;24292;-31
2021/12/31 00:32:12;;;;;;;13.70;5.60;;;;;;;9.70;100.00;99282.23;103590;1302;24215;-28
2021/12/31 00:34:38;;;;;;;15.10;4.50;;;;;;;9.55;100.00;99281.43;103489;1302;24185;-31
2021/12/31 00:37:04;;;;;;;12.90;6.10;;;;;;;9.77;100.00;99283.96;103547;1302;24392;-25
2021/12/31 00:39:30;;;;;;;8.10;5.00;;;;;;;9.64;100.00;99289.39;103408;1302;24205;-29
2021/12/31 00:41:55;;;;;;;15.40;8.40;;;;;;;9.53;100.00;99287.03;103571;1302;24236;-31
2021/12/31 00:44:21;;;;;;;8.20;4.50;;;;;;;9.80;100.00;99294.02;103659;1302;23199;-30
2021/12/31 00:46:48;;;;;;;14.10;6.30;;;;;;;9.86;100.00;99287.98;103546;1302;22849;-25
2021/12/31 00:49:14;;;;;;;6.10;2.60;;;;;;;9.61;100.00;99296.28;103497;1302;24261;-30
2021/12/31 00:51:40;;;;;;;5.50;4.70;;;;;;;9.58;100.00;99302.95;103454;1302;24344;-31
2021/12/31 00:54:06;;;;;;;10.60;5.20;;;;;;;9.81;100.00;99306.07;103507;1302;24256;-24
2021/12/31 00:56:32;;;;;;;4.20;3.20;;;;;;;10.04;100.00;99301.79;103558;1302;24177;-25
2021/12/31 00:58:58;;;;;;;6.10;4.00;;;;;;;10.05;100.00;99306.10;103573;1302;24409;-27
2021/12/31 01:01:25;;;;;;;6.30;5.60;;;;;;;10.04;100.00;99302.83;103498;1302;24174;-31
2021/12/31 01:03:51;;;;;;;10.60;6.10;;;;;;;10.23;100.00;99303.39;103533;1302;22630;-30
2021/12/31 01:06:17;;;;;;;5.60;3.90;;;;;;;9.82;100.00;99306.29;103589;1302;24308;-25
2021/12/31 01:08:42;;;;;;;4.40;3.20;;;;;;;9.93;100.00;99307.16;103590;1302;24215;-30
2021/12/31 01:11:09;;;;;;;6.40;5.40;;;;;;;9.90;100.00;99308.73;103544;1302;24259;-27
2021/12/31 01:13:48;;;;;;;4.40;2.70;;;;;;;9.91;100.00;99305.27;103567;1302;24221;-31
2021/12/31 01:16:16;;;;;;;10.00;4.20;;;;;;;9.65;100.00;99313.58;103598;1302;22905;-27
2021/12/31 01:21:11;;;;;;;2.20;1.20;;;;;;;9.77;100.00;99316.23;103520;1302;24275;-24
2021/12/31 01:23:37;;;;;;;7.10;5.20;;;;;;;9.96;100.00;99310.40;103591;1302;24214;-27
2021/12/31 01:26:03;;;;;;;5.90;3.90;;;;;;;10.10;100.00;99310.38;103590;1302;24194;-27
2021/12/31 01:28:29;;;;;;;4.40;3.30;;;;;;;9.74;100.00;99316.38;103504;1302;24355;-30
2021/12/31 01:30:56;;;;;;;4.50;3.90;;;;;;;9.81;100.00;99308.02;103542;1302;22647;-32
2021/12/31 01:33:22;;;;;;;8.80;4.20;;;;;;;9.75;100.00;99309.52;103506;1302;22724;-30
2021/12/31 01:35:48;;;;;;;6.70;4.10;;;;;;;9.77;100.00;99306.34;103572;1301;24286;-25
2021/12/31 01:38:15;;;;;;;6.20;4.10;;;;;;;9.66;100.00;99305.69;103508;1302;24378;-27
2021/12/31 01:40:41;;;;;;;4.50;3.90;;;;;;;9.98;100.00;99307.56;103451;1302;24284;-24
2021/12/31 01:43:07;;;;;;;3.50;3.20;;;;;;;9.67;100.00;99310.88;103566;1302;24519;-26
2021/12/31 01:45:43;;;;;;;2.20;1.80;;;;;;;9.82;100.00;99306.86;103538;1302;24217;-31
2021/12/31 01:48:21;;;;;;;5.40;3.80;;;;;;;9.94;100.00;99311.21;103495;1301;24356;-23
2021/12/31 01:50:47;;;;;;;4.70;3.00;;;;;;;9.91;100.00;99310.58;103533;1302;24439;-25
2021/12/31 01:53:14;;;;;;;5.40;2.70;;;;;;;9.87;100.00;99307.86;103573;1302;22511;-32
2021/12/31 01:55:39;;;;;;;6.50;4.20;;;;;;;9.56;100.00;99314.15;103760;1302;24219;-33
2021/12/31 01:58:07;;;;;;;3.00;2.40;;;;;;;9.68;100.00;99315.38;103537;1301;22750;-25
2021/12/31 02:00:35;;;;;;;3.80;2.10;;;;;;;9.74;100.00;99319.01;103540;1302;24168;-27
2021/12/31 02:03:01;;;;;;;3.80;3.40;;;;;;;9.71;100.00;99310.94;103616;1302;24329;-33
2021/12/31 02:05:28;;;;;;;3.10;2.80;;;;;;;9.76;100.00;99308.14;103569;1302;22508;-25
2021/12/31 02:07:54;;;;;;;1.70;1.60;;;;;;;9.70;100.00;99312.87;103560;1302;22525;-31
2021/12/31 02:10:20;;;;;;;4.50;3.30;;;;;;;9.77;100.00;99315.98;103497;1302;24308;-25
2021/12/31 02:12:46;;;;;;;3.30;1.90;;;;;;;9.46;100.00;99317.72;103508;1302;22762;-30
2021/12/31 02:15:14;;;;;;;5.60;1.20;;;;;;;9.30;100.00;99320.61;103558;1302;24191;-25
2021/12/31 02:17:40;;;;;;;3.60;2.50;;;;;;;9.30;100.00;99326.55;103578;1302;24109;-31
2021/12/31 02:20:07;;;;;;;3.30;1.80;;;;;;;9.10;100.00;99327.31;103459;1302;24337;-25
2021/12/31 02:22:35;;;;;;;5.90;3.30;;;;;;;9.29;100.00;99327.94;103512;1302;24174;-31
2021/12/31 02:25:01;;;;;;;4.60;2.20;;;;;;;9.22;100.00;99327.38;103552;1302;22570;-25
2021/12/31 02:27:27;;;;;;;2.60;1.90;;;;;;;9.17;100.00;99330.19;103549;1302;24263;-30
2021/12/31 02:29:53;;;;;;;3.80;2.10;;;;;;;9.35;100.00;99327.42;103577;1302;24380;-24
2021/12/31 02:32:19;;;;;;;10.70;3.50;;;;;;;9.14;100.00;99329.05;103523;1302;24263;-26
2021/12/31 02:34:45;;;;;;;3.00;2.30;;;;;;;9.41;100.00;99323.53;103514;1302;24239;-25
2021/12/31 02:37:11;;;;;;;3.20;1.80;;;;;;;9.34;100.00;99321.06;103550;1302;24256;-24
2021/12/31 02:39:39;;;;;;;1.30;1.20;;;;;;;9.16;100.00;99327.20;103562;1302;24342;-31
2021/12/31 02:42:06;;;;;;;3.20;2.70;;;;;;;9.35;100.00;99329.77;103474;1302;23976;-25
2021/12/31 02:44:32;;;;;;;2.20;1.90;;;;;;;9.47;100.00;99326.92;103532;1302;24314;-25
2021/12/31 02:47:02;;;;;;;1.00;0.80;;;;;;;9.65;100.00;99330.65;103489;1302;24227;-24
2021/12/31 02:49:29;;;;;;;2.10;1.50;;;;;;;9.51;100.00;99333.95;103554;1301;22635;-31
2021/12/31 02:52:02;;;;;;;4.50;2.10;;;;;;;9.66;100.00;99334.05;103546;1302;24351;-25
2021/12/31 02:54:28;;;;;;;8.60;3.20;;;;;;;9.69;100.00;99332.63;103443;1301;24296;-30
2021/12/31 02:56:54;;;;;;;3.00;2.20;;;;;;;9.69;100.00;99334.77;103369;1302;24211;-25
2021/12/31 02:59:20;;;;;;;5.10;2.90;;;;;;;9.47;100.00;99335.39;103543;1302;24221;-24
2021/12/31 03:01:46;;;;;;;3.60;2.10;;;;;;;9.50;100.00;99333.66;103517;1302;24229;-25
2021/12/31 03:04:12;;;;;;;2.10;1.50;;;;;;;9.85;100.00;99339.88;103582;1302;24259;-30
2021/12/31 03:06:38;;;;;;;3.00;1.40;;;;;;;9.53;100.00;99343.03;103558;1302;24307;-31
2021/12/31 03:09:04;;;;;;;3.20;2.10;;;;;;;9.86;100.00;99335.28;103489;1302;22512;-25
2021/12/31 03:11:30;;;;;;;5.10;2.40;;;;;;;9.42;100.00;99335.98;103555;1302;24216;-25
2021/12/31 03:13:56;;;;;;;3.00;1.70;;;;;;;9.46;100.00;99333.56;103586;1302;24372;-30
2021/12/31 03:16:22;;;;;;;5.50;3.30;;;;;;;9.67;100.00;99341.73;103531;1302;24213;-30
2021/12/31 03:18:49;;;;;;;3.60;2.40;;;;;;;9.49;100.00;99335.89;103585;1302;24253;-25
2021/12/31 03:21:21;;;;;;;6.40;2.40;;;;;;;9.38;100.00;99334.88;103593;1302;25955;-31
2021/12/31 03:23:49;;;;;;;2.90;1.90;;;;;;;9.38;100.00;99332.70;103470;1302;24176;-31
2021/12/31 03:26:15;;;;;;;4.40;2.00;;;;;;;9.19;100.00;99333.14;103564;1302;22624;-31
2021/12/31 03:28:41;;;;;;;4.10;2.80;;;;;;;9.33;100.00;99326.91;103564;1302;24230;-30
2021/12/31 03:31:07;;;;;;;4.30;2.30;;;;;;;9.23;100.00;99327.93;103619;1302;24306;-30
2021/12/31 03:33:32;;;;;;;3.20;2.70;;;;;;;9.31;100.00;99324.17;103523;1302;24376;-30
2021/12/31 03:35:58;;;;;;;2.30;1.70;;;;;;;9.25;100.00;99326.00;103563;1302;24215;-24
2021/12/31 03:38:24;;;;;;;3.60;1.80;;;;;;;9.35;100.00;99333.24;103533;1302;24348;-25
2021/12/31 03:40:50;;;;;;;1.30;1.10;;;;;;;9.29;100.00;99328.81;103517;1302;24331;-31
2021/12/31 03:43:16;;;;;;;1.10;0.80;;;;;;;9.22;100.00;99325.02;103548;1302;24162;-30
2021/12/31 03:45:42;;;;;;;5.50;2.30;;;;;;;9.03;100.00;99325.13;103498;1302;24268;-24
2021/12/31 03:48:08;;;;;;;2.10;1.70;;;;;;;8.96;100.00;99326.70;103442;1302;24324;-31
2021/12/31 03:50:35;;;;;;;3.60;2.20;;;;;;;8.91;100.00;99329.60;103541;1302;24255;-24
2021/12/31 03:53:01;;;;;;;6.40;3.00;;;;;;;8.83;100.00;99329.52;103495;1302;24229;-25
2021/12/31 03:55:27;;;;;;;3.50;2.60;;;;;;;8.95;100.00;99332.22;103491;1302;24317;-31
2021/12/31 03:57:53;;;;;;;3.20;2.50;;;;;;;8.85;100.00;99334.98;103518;1302;24236;-29
2021/12/31 04:00:19;;;;;;;3.20;2.70;;;;;;;8.87;100.00;99334.39;103526;1302;22508;-31
2021/12/31 04:02:46;;;;;;;4.90;2.90;;;;;;;8.83;100.00;99328.91;103571;1302;24316;-25
2021/12/31 04:05:11;;;;;;;11.90;2.40;;;;;;;8.91;100.00;99332.21;103513;1302;24322;-25
2021/12/31 04:07:37;;;;;;;3.90;2.60;;;;;;;8.93;100.00;99331.48;103591;1302;24254;-30
2021/12/31 04:10:04;;;;;;;4.80;2.70;;;;;;;8.87;100.00;99326.22;103226;1302;444855;-25
2021/12/31 04:12:29;;;;;;;3.50;2.10;;;;;;;8.81;100.00;99329.13;103506;1302;24359;-31
2021/12/31 04:14:56;;;;;;;4.20;2.10;;;;;;;8.71;100.00;99331.63;103488;1302;24219;-30
2021/12/31 04:17:22;;;;;;;3.50;2.20;;;;;;;8.59;100.00;99333.11;103488;1302;22802;-24
2021/12/31 04:19:54;;;;;;;3.00;1.80;;;;;;;8.60;100.00;99334.81;103494;1302;24271;-30
2021/12/31 04:22:22;;;;;;;6.40;2.10;;;;;;;8.59;100.00;99330.40;103527;1302;24189;-31
2021/12/31 04:27:14;;;;;;;2.80;2.00;;;;;;;8.63;100.00;99337.52;103531;1302;24244;-32
2021/12/31 04:29:40;;;;;;;1.50;1.30;;;;;;;8.61;100.00;99339.81;103421;1302;24337;-27
2021/12/31 04:32:06;;;;;;;3.30;2.00;;;;;;;8.55;100.00;99336.65;103477;1302;24298;-31
2021/12/31 04:34:32;;;;;;;2.10;1.30;;;;;;;8.51;100.00;99334.98;103509;1302;24214;-31
2021/12/31 04:36:59;;;;;;;3.10;1.90;;;;;;;8.58;100.00;99333.27;103525;1302;24237;-30
2021/12/31 04:39:24;;;;;;;3.00;1.40;;;;;;;8.77;100.00;99334.88;103548;1302;24251;-30
2021/12/31 04:41:50;;;;;;;1.70;0.90;;;;;;;8.73;100.00;99338.56;103562;1302;24320;-24
2021/12/31 04:44:16;;;;;;;2.60;1.50;;;;;;;8.69;100.00;99345.11;103481;1302;24292;-24
2021/12/31 04:46:42;;;;;;;1.20;0.90;;;;;;;8.63;100.00;99346.06;103515;1302;22500;-30
2021/12/31 04:49:08;;;;;;;1.50;1.30;;;;;;;8.52;100.00;99354.96;103505;1302;24299;-30
2021/12/31 04:51:34;;;;;;;1.20;0.90;;;;;;;8.64;100.00;99349.25;103525;1301;24241;-31
2021/12/31 04:54:00;;;;;;;1.60;0.90;;;;;;;8.65;100.00;99344.52;103474;1302;24309;-30
2021/12/31 04:56:26;;;;;;;2.00;1.30;;;;;;;8.68;100.00;99338.10;103494;1302;24282;-25
2021/12/31 04:58:52;;;;;;;2.50;1.60;;;;;;;8.57;100.00;99340.17;103532;1302;22512;-30
2021/12/31 05:01:21;;;;;;;3.10;0.70;;;;;;;8.57;100.00;99340.01;103594;1302;22516;-31
2021/12/31 05:03:48;;;;;;;1.00;0.60;;;;;;;8.57;100.00;99339.23;103540;1302;23071;-33
2021/12/31 05:06:15;;;;;;;2.50;1.30;;;;;;;8.58;100.00;99341.83;103677;1302;24261;-25
2021/12/31 05:08:41;;;;;;;1.50;0.90;;;;;;;8.66;100.00;99330.85;103596;1302;24232;-30
2021/12/31 05:11:07;;;;;;;2.20;0.90;;;;;;;8.66;100.00;99338.94;103570;1302;24778;-25
2021/12/31 05:13:33;;;;;;;0.60;0.40;;;;;;;8.84;100.00;99334.73;103496;1302;24308;-31
2021/12/31 05:16:03;;;;;;;0.80;0.50;;;;;;;8.85;100.00;99337.83;103503;1302;22510;-31
2021/12/31 05:18:29;;;;;;;2.40;0.60;;;;;;;8.74;100.00;99342.13;103458;1302;24278;-33
2021/12/31 05:20:55;;;;;;;0.60;0.50;;;;;;;8.75;100.00;99343.13;103496;1302;24306;-27
2021/12/31 05:23:21;;;;;;;1.30;0.50;;;;;;;8.76;100.00;99343.55;103442;1302;24177;-31
2021/12/31 05:25:47;;;;;;;1.20;0.90;;;;;;;9.05;100.00;99349.64;103513;1302;24304;-31
2021/12/31 05:28:13;;;;;;;0.80;0.50;;;;;;;8.88;100.00;99348.03;103552;1302;24462;-31
2021/12/31 05:30:39;;;;;;;0.80;0.60;;;;;;;8.77;100.00;99349.16;103563;1302;24214;-31
2021/12/31 05:33:05;;;;;;;1.00;0.40;;;;;;;8.75;100.00;99343.71;103368;1302;24285;-31
2021/12/31 05:35:31;;;;;;;1.50;0.60;;;;;;;8.78;100.00;99349.95;103540;1302;24348;-30
2021/12/31 05:37:57;;;;;;;1.90;0.90;;;;;;;8.75;100.00;99352.03;103504;1302;24456;-30
2021/12/31 05:40:23;;;;;;;1.20;0.70;;;;;;;8.78;100.00;99347.45;103521;1302;22518;-30
2021/12/31 05:42:49;;;;;;;1.70;0.70;;;;;;;8.81;100.00;99348.16;103634;1302;24317;-25
2021/12/31 05:45:15;;;;;;;1.90;0.60;;;;;;;8.80;100.00;99348.52;103496;1302;24223;-31
2021/12/31 05:47:41;;;;;;;1.30;0.60;;;;;;;8.88;100.00;99351.73;103523;1302;24185;-27
2021/12/31 05:50:27;;;;;;;1.50;0.80;;;;;;;9.04;100.00;99351.50;103513;1302;24299;-25
2021/12/31 05:52:55;;;;;;;1.80;0.80;;;;;;;9.02;100.00;99352.08;103461;1302;24286;-31
2021/12/31 05:55:21;;;;;;;2.00;0.90;;;;;;;8.98;100.00;99344.25;103558;1302;24359;-31
2021/12/31 05:57:46;;;;;;;1.50;0.90;;;;;;;8.98;100.00;99346.02;103567;1302;24230;-25
2021/12/31 06:00:13;;;;;;;0.80;0.60;;;;;;;8.99;100.00;99343.42;103569;1302;24188;-25
2021/12/31 06:02:39;;;;;;;1.20;0.60;;;;;;;9.03;100.00;99337.45;103566;1302;22511;-31
2021/12/31 06:05:05;;;;;;;0.70;0.50;;;;;;;8.97;100.00;99348.02;103530;1302;24414;-30
2021/12/31 06:07:31;;;;;;;1.40;0.80;;;;;;;8.86;100.00;99347.02;103502;1302;24365;-30
2021/12/31 06:09:57;;;;;;;0.80;0.60;;;;;;;8.87;100.00;99350.75;103560;1302;24208;-31
2021/12/31 06:12:24;;;;;;;1.90;1.00;;;;;;;8.79;100.00;99356.73;103515;1302;24474;-27
2021/12/31 06:14:52;;;;;;;1.50;0.80;;;;;;;8.93;100.00;99358.28;103583;1302;24328;-33
2021/12/31 06:17:22;;;;;;;0.80;0.50;;;;;;;8.94;100.00;99356.59;103632;1302;25357;-31
2021/12/31 06:19:49;;;;;;;1.60;1.10;;;;;;;9.04;100.00;99362.79;103560;1302;24854;-28
2021/12/31 06:22:15;;;;;;;1.70;1.00;;;;;;;9.02;100.00;99366.34;103488;1302;24223;-31
2021/12/31 06:24:42;;;;;;;1.20;0.50;;;;;;;9.00;100.00;99362.98;103554;1302;24249;-33
2021/12/31 06:27:08;;;;;;;0.60;0.50;;;;;;;9.13;100.00;99361.15;103551;1302;24455;-31
2021/12/31 06:29:34;;;;;;;0.90;0.70;;;;;;;8.94;100.00;99360.10;103602;1302;22513;-31
2021/12/31 06:32:00;;;;;;;0.90;0.50;;;;;;;9.02;100.00;99359.83;103538;1302;24233;-27
2021/12/31 06:34:25;;;;;;;3.10;0.50;;;;;;;9.01;100.00;99361.64;103552;1301;24294;-27
2021/12/31 06:36:51;;;;;;;1.60;0.80;;;;;;;9.00;100.00;99366.69;103414;1302;24226;-31
2021/12/31 06:39:17;;;;;;;0.90;0.60;;;;;;;8.97;100.00;99365.30;103579;1302;24332;-30
2021/12/31 06:41:43;;;;;;;1.40;0.70;;;;;;;9.04;100.00;99366.91;103545;1302;24331;-31
2021/12/31 06:44:09;;;;;;;6.30;0.70;;;;;;;9.01;100.00;99369.13;103517;1302;24304;-24
2021/12/31 06:46:35;;;;;;;1.40;0.80;;;;;;;9.15;100.00;99372.36;103530;1302;24214;-30
2021/12/31 06:49:01;;;;;;;3.90;1.30;;;;;;;9.25;100.00;99375.56;103587;1302;24306;-30
2021/12/31 06:51:27;;;;;;;1.80;0.60;;;;;;;9.06;100.00;99376.08;103492;1302;24463;-25
2021/12/31 06:53:53;;;;;;;1.20;0.70;;;;;;;9.09;100.00;99372.04;103483;1303;22516;-31
2021/12/31 06:56:19;;;;;;;0.90;0.70;;;;;;;9.09;100.00;99380.36;103517;1302;24205;-31
2021/12/31 06:58:45;;;;;;;1.20;0.50;;;;;;;9.05;100.00;99375.77;103651;1302;22847;-28
2021/12/31 07:01:11;;;;;;;2.10;0.90;;;;;;;9.11;100.00;99381.05;103447;1302;24197;-25
2021/12/31 07:03:37;;;;;;;0.50;0.40;;;;;;;9.25;100.00;99387.36;103530;1302;24208;-25
2021/12/31 07:06:03;;;;;;;3.20;0.70;;;;;;;9.21;100.00;99390.23;103454;1302;24312;-25
2021/12/31 07:08:29;;;;;;;1.00;0.50;;;;;;;9.55;100.00;99390.61;103565;1302;24189;-31
2021/12/31 07:10:55;;;;;;;1.90;0.60;;;;;;;9.44;100.00;99396.48;103476;1301;24223;-25
2021/12/31 07:13:21;;;;;;;1.10;0.80;;;;;;;9.29;100.00;99398.20;103557;1302;24227;-29
2021/12/31 07:15:49;;;;;;;1.80;1.00;;;;;;;9.26;100.00;99399.98;103510;1302;24270;-25
2021/12/31 07:18:15;;;;;;;4.10;3.20;;;;;;;9.20;100.00;99408.19;103542;1302;22517;-25
2021/12/31 07:20:41;;;;;;;1.60;1.20;;;;;;;9.15;100.00;99407.18;103627;1302;24350;-31
2021/12/31 07:23:09;;;;;;;2.30;1.00;;;;;;;9.14;100.00;99405.20;103519;1302;24263;-27
2021/12/31 07:25:35;;;;;;;1.80;1.10;;;;;;;9.08;100.00;99414.55;103554;1302;24355;-24
2021/12/31 07:28:01;;;;;;;2.10;1.30;;;;;;;9.27;100.00;99409.48;103530;1302;24416;-25
2021/12/31 07:30:28;;;;;;;2.60;2.40;;;;;;;9.26;100.00;99417.70;103599;1302;22618;-31
2021/12/31 07:32:54;;;;;;;9.70;1.80;;;;;;;9.18;100.00;99414.16;103514;1302;24331;-30
2021/12/31 07:35:20;;;;;;;1.40;0.80;;;;;;;9.16;100.00;99410.42;103500;1302;24315;-26
2021/12/31 07:37:46;;;;;;;4.10;1.50;;;;;;;9.06;100.00;99421.20;103491;1302;24184;-25
2021/12/31 07:40:12;;;;;;;2.60;1.50;;;;;;;9.00;100.00;99424.05;103579;1302;24330;-33
2021/12/31 07:42:39;;;;;;;0.80;0.50;;;;;;;9.03;100.00;99423.07;103507;1302;24332;-31
2021/12/31 07:45:05;;;;;;;1.90;1.20;;;;;;;9.04;100.00;99421.83;103559;1302;24364;-27
2021/12/31 07:47:31;;;;;;;1.50;1.00;;;;;;;8.96;100.00;99427.17;103559;1302;24437;-30
2021/12/31 07:49:57;;;;;;;1.10;0.90;;;;;;;8.94;100.00;99428.22;103594;1302;24192;-31
2021/12/31 07:52:23;;;;;;;2.90;1.10;;;;;;;8.94;100.00;99432.65;103523;1302;22705;-31
2021/12/31 07:54:50;;;;;;;3.70;1.30;;;;;;;8.97;100.00;99435.10;103554;1302;24178;-30
2021/12/31 07:57:16;;;;;;;2.10;1.10;;;;;;;8.99;100.00;99434.11;103600;1302;24261;-26
2021/12/31 07:59:41;;;;;;;5.90;1.10;;;;;;;9.05;100.00;99439.84;103522;1302;24328;-31
2021/12/31 08:02:07;;;;;;;1.90;0.90;;;;;;;8.89;100.00;99440.88;103610;1302;22509;-30
2021/12/31 08:04:33;;;;;;;2.00;0.90;;;;;;;9.14;100.00;99443.44;103579;1302;24292;-25
2021/12/31 08:07:00;;;;;;;9.80;2.70;;;;;;;9.12;100.00;99443.38;103536;1302;22712;-31
2021/12/31 08:09:26;;;;;;;1.70;1.00;;;;;;;9.28;100.00;99436.87;103616;1299;24212;-28
2021/12/31 08:11:52;;;;;;;1.30;0.80;;;;;;;9.08;100.00;99447.58;103500;1302;24350;-25
2021/12/31 08:14:18;;;;;;;1.30;0.60;;;;;;;9.05;100.00;99445.92;103574;1302;24155;-25
2021/12/31 08:16:45;;;;;;;1.50;0.70;;;;;;;9.19;100.00;99447.27;103532;1302;24208;-25
2021/12/31 08:19:10;;;;;;;2.10;1.20;;;;;;;9.18;100.00;99447.33;103599;1299;24261;-25
2021/12/31 08:21:36;;;;;;;1.50;0.80;;;;;;;8.99;100.00;99441.36;103527;1302;24354;-26
2021/12/31 08:24:02;;;;;;;1.30;0.80;;;;;;;9.13;100.00;99440.85;103650;1302;24214;-26
2021/12/31 08:26:28;;;;;;;1.30;0.70;;;;;;;9.05;100.00;99443.58;103579;1302;24197;-31
2021/12/31 08:28:55;;;;;;;1.40;0.70;;;;;;;8.99;100.00;99448.69;103601;1302;24421;-27
2021/12/31 08:31:21;;;;;;;3.10;1.50;;;;;;;8.97;100.00;99448.04;103524;1302;24266;-25
2021/12/31 08:33:47;;;;;;;1.80;1.10;;;;;;;9.10;100.00;99449.61;103761;1302;24322;-31
2021/12/31 08:36:13;;;;;;;2.00;1.20;;;;;;;9.06;100.00;99455.95;103681;1302;22755;-25
2021/12/31 08:38:39;;;;;;;1.30;0.60;;;;;;;9.16;100.00;99447.64;103511;1302;24233;-28
2021/12/31 08:41:05;;;;;;;0.60;0.50;;;;;;;9.15;100.00;99448.36;103525;1302;24181;-29
2021/12/31 08:43:30;;;;;;;1.50;0.70;;;;;;;9.14;100.00;99445.91;103489;1302;24306;-25
2021/12/31 08:45:56;;;;;;;3.90;1.10;;;;;;;9.23;100.00;99444.47;103547;1302;24240;-25
2021/12/31 08:48:22;;;;;;;1.50;0.80;;;;;;;9.22;100.00;99435.64;103549;1302;22868;-25
2021/12/31 08:50:48;;;;;;;1.80;0.90;;;;;;;9.48;100.00;99439.15;103595;1300;24488;-27
2021/12/31 08:53:14;;;;;;;3.20;1.00;;;;;;;9.39;100.00;99432.46;103527;1302;24214;-31
2021/12/31 08:55:40;;;;;;;1.30;0.80;;;;;;;9.43;100.00;99431.85;103522;1302;22619;-31
2021/12/31 08:58:06;;;;;;;2.10;0.60;;;;;;;9.42;100.00;99431.83;103489;1302;24430;-25
2021/12/31 09:00:32;;;;;;;1.60;0.50;;;;;;;9.46;100.00;99433.48;103467;1301;24294;-25
2021/12/31 09:02:58;;;;;;;1.70;0.60;;;;;;;9.66;100.00;99431.20;103472;1302;24256;-31
2021/12/31 09:05:24;;;;;;;0.90;0.70;;;;;;;9.52;100.00;99433.60;103558;1302;24339;-30
2021/12/31 09:07:50;;;;;;;1.20;0.70;;;;;;;9.51;100.00;99431.23;103589;1302;24262;-25
2021/12/31 09:10:16;;;;;;;3.00;0.40;;;;;;;9.62;100.00;99434.30;103576;1302;24197;-25
2021/12/31 09:15:11;;;;;;;1.30;0.60;;;;;;;9.56;100.00;99447.45;103533;1302;22595;-25
2021/12/31 09:17:37;;;;;;;0.80;0.50;;;;;;;9.69;100.00;99442.58;103517;1302;24330;-29
2021/12/31 09:20:04;;;;;;;1.60;0.70;;;;;;;9.77;100.00;99444.45;103507;1302;24271;-33
2021/12/31 09:22:30;;;;;;;1.00;0.60;;;;;;;9.72;100.00;99447.02;103527;1302;24437;-25
2021/12/31 09:24:58;;;;;;;1.70;0.50;;;;;;;9.65;100.00;99447.36;103526;1302;24253;-30
2021/12/31 09:27:25;;;;;;;3.30;0.80;;;;;;;9.61;100.00;99450.54;103677;1302;23979;-30
2021/12/31 09:29:51;;;;;;;1.40;0.60;;;;;;;9.77;100.00;99449.94;103538;1302;24286;-31
2021/12/31 09:32:17;;;;;;;0.80;0.50;;;;;;;9.66;100.00;99448.29;103527;1302;24371;-25
2021/12/31 09:34:44;;;;;;;1.90;0.70;;;;;;;9.74;100.00;99445.89;103570;1301;24329;-30
2021/12/31 09:37:11;;;;;;;2.50;1.30;;;;;;;9.70;100.00;99451.18;103632;1302;22781;-30
2021/12/31 09:39:37;;;;;;;2.00;0.70;;;;;;;9.70;100.00;99448.82;103518;1302;24286;-25
2021/12/31 09:42:05;;;;;;;0.90;0.60;;;;;;;9.64;100.00;99451.02;103417;1303;22796;-32
2021/12/31 09:44:32;;;;;;;1.50;0.90;;;;;;;9.86;100.00;99444.08;103606;1302;24165;-28
2021/12/31 09:46:58;;;;;;;2.20;1.30;;;;;;;10.08;99.98;99440.58;103696;1302;24887;-32
2021/12/31 09:49:24;;;;;;;1.60;1.00;;;;;;;10.08;99.78;99442.23;103607;1302;22509;-31
2021/12/31 09:51:50;;;;;;;2.00;0.90;;;;;;;9.91;100.00;99445.40;103579;1302;24176;-25
2021/12/31 09:54:21;;;;;;;3.10;1.40;;;;;;;9.93;100.00;99445.38;103608;1302;24222;-26
2021/12/31 09:56:48;;;;;;;2.20;1.00;;;;;;;10.06;99.84;99443.70;103527;1302;24319;-26
2021/12/31 09:59:13;;;;;;;2.10;1.20;;;;;;;10.03;99.32;99442.27;103528;1302;24247;-29
2021/12/31 10:01:43;;;;;;;4.50;2.30;;;;;;;10.38;97.04;99430.03;103546;1302;24250;-32
2021/12/31 10:04:10;;;;;;;3.30;1.70;;;;;;;10.35;97.11;99436.83;103554;1302;24274;-30
2021/12/31 10:06:35;;;;;;;2.10;1.30;;;;;;;10.47;96.42;99430.11;103578;1302;24294;-25
2021/12/31 10:09:02;;;;;;;3.80;1.00;;;;;;;10.40;95.78;99430.51;103621;1302;24168;-27
2021/12/31 10:11:28;;;;;;;1.50;0.80;;;;;;;10.27;97.04;99426.67;103589;1302;24272;-25
2021/12/31 10:13:55;;;;;;;1.40;1.20;;;;;;;10.34;96.24;99428.56;103551;1301;24227;-29
2021/12/31 10:16:23;;;;;;;2.10;0.80;;;;;;;10.27;97.15;99431.77;103645;1302;22495;-26
2021/12/31 10:18:50;;;;;;;3.30;1.00;;;;;;;10.39;96.34;99429.36;103602;1302;23931;-30
2021/12/31 10:21:19;;;;;;;2.30;1.20;;;;;;;10.31;96.67;99428.70;103537;1302;24342;-29
2021/12/31 10:23:46;;;;;;;2.80;1.60;;;;;;;10.32;96.37;99430.20;103587;1302;22617;-32
2021/12/31 10:26:13;;;;;;;2.10;1.00;;;;;;;10.31;96.18;99422.09;103555;1301;24212;-30
2021/12/31 10:28:57;;;;;;;2.10;1.60;;;;;;;10.33;96.24;99424.50;103581;1302;22641;-31
2021/12/31 10:31:23;;;;;;;6.40;1.10;;;;;;;10.64;94.93;99415.23;103645;1302;24197;-26
2021/12/31 10:33:49;;;;;;;0.80;0.30;;;;;;;10.40;94.77;99414.08;103589;1302;24478;-26
2021/12/31 10:36:32;;;;;;;1.60;1.20;;;;;;;10.50;94.75;99414.12;103582;1302;24274;-30
2021/12/31 10:39:00;;;;;;;1.90;1.10;;;;;;;10.48;95.15;99415.56;103525;1302;22618;-30
2021/12/31 10:41:27;;;;;;;0.70;0.60;;;;;;;10.53;94.45;99417.59;103634;1302;24253;-26
2021/12/31 10:43:57;;;;;;;4.70;1.50;;;;;;;10.36;94.60;99422.20;103642;1302;24418;-30
2021/12/31 10:46:23;;;;;;;2.80;1.70;;;;;;;10.46;94.70;99410.52;103579;1302;22842;-30
2021/12/31 10:48:50;;;;;;;2.20;1.20;;;;;;;10.86;92.38;99403.13;103658;1302;22509;-26
2021/12/31 10:51:18;;;;;;;2.10;1.20;;;;;;;10.50;93.41;99404.98;103528;1301;22512;-30
2021/12/31 10:56:14;;;;;;;1.20;1.00;;;;;;;10.58;93.43;99410.45;103567;1302;24256;-32
2021/12/31 10:58:43;;;;;;;2.80;1.50;;;;;;;10.69;92.82;99410.61;103609;1302;24469;-27
2021/12/31 11:01:12;;;;;;;2.30;1.30;;;;;;;10.57;93.90;99403.98;103515;1302;22852;-25
2021/12/31 11:03:38;;;;;;;2.00;1.50;;;;;;;10.60;93.32;99408.40;103525;1302;24318;-30
2021/12/31 11:06:07;;;;;;;1.50;0.70;;;;;;;10.88;92.61;99397.04;103482;1302;24379;-25
2021/12/31 11:08:34;;;;;;;1.40;1.20;;;;;;;10.96;92.02;99395.63;103498;1302;24183;-30
2021/12/31 11:11:01;;;;;;;4.10;1.70;;;;;;;10.69;92.56;99398.34;103548;1302;24346;-23
2021/12/31 11:13:28;;;;;;;3.40;1.40;;;;;;;10.65;92.53;99397.20;103566;1302;24362;-28
2021/12/31 11:15:55;;;;;;;4.70;1.30;;;;;;;10.61;93.13;99397.77;103543;1302;24139;-30
2021/12/31 11:18:23;;;;;;;3.40;1.50;;;;;;;10.53;93.15;99396.37;103518;1302;22739;-29
2021/12/31 11:20:51;;;;;;;2.00;1.20;;;;;;;10.61;93.00;99393.78;103558;1302;24213;-30
2021/12/31 11:23:22;;;;;;;1.40;1.30;;;;;;;10.83;92.22;99393.32;103596;1302;24248;-25
2021/12/31 11:25:52;;;;;;;3.10;2.10;;;;;;;10.67;92.20;99390.63;103566;1302;24273;-29
2021/12/31 11:28:23;;;;;;;2.90;1.70;;;;;;;10.80;91.79;99387.36;103479;1302;22524;-30
2021/12/31 11:30:50;;;;;;;2.20;1.30;;;;;;;10.72;92.23;99376.23;103563;1302;24178;-30
2021/12/31 11:33:18;;;;;;;3.90;1.80;;;;;;;10.72;92.01;99378.52;103580;1302;24262;-25
2021/12/31 11:35:46;;;;;;;1.70;1.00;;;;;;;10.87;91.27;99380.75;103534;1302;24233;-25